sensor_id;sensor_type;location;lat;lon;timestamp;P1;durP1;ratioP1;P2;durP2;ratioP2
76727;SDS011;65652;53.132;18.026;2023-02-28T00:00:11;115.80;;;33.00;;
76727;SDS011;65652;53.132;18.026;2023-02-28T00:02:59;98.50;;;32.80;;
76727;SDS011;65652;53.132;18.026;2023-02-28T00:05:26;101.30;;;31.60;;
76727;SDS011;65652;53.132;18.026;2023-02-28T00:07:53;105.60;;;33.90;;
76727;SDS011;65652;53.132;18.026;2023-02-28T00:10:21;97.50;;;33.80;;
76727;SDS011;65652;53.132;18.026;2023-02-28T00:12:51;105.70;;;34.80;;
76727;SDS011;65652;53.132;18.026;2023-02-28T00:15:18;99.50;;;36.30;;
76727;SDS011;65652;53.132;18.026;2023-02-28T00:17:44;105.30;;;35.60;;
76727;SDS011;65652;53.132;18.026;2023-02-28T00:20:12;98.00;;;35.20;;
76727;SDS011;65652;53.132;18.026;2023-02-28T00:22:39;98.40;;;34.30;;
76727;SDS011;65652;53.132;18.026;2023-02-28T00:27:35;98.60;;;32.90;;
76727;SDS011;65652;53.132;18.026;2023-02-28T00:30:04;92.70;;;33.50;;
76727;SDS011;65652;53.132;18.026;2023-02-28T00:32:32;100.10;;;35.60;;
76727;SDS011;65652;53.132;18.026;2023-02-28T00:35:00;87.30;;;34.00;;
76727;SDS011;65652;53.132;18.026;2023-02-28T00:37:27;91.50;;;33.00;;
76727;SDS011;65652;53.132;18.026;2023-02-28T00:39:54;98.90;;;31.00;;
76727;SDS011;65652;53.132;18.026;2023-02-28T00:42:21;76.80;;;28.80;;
76727;SDS011;65652;53.132;18.026;2023-02-28T00:44:48;80.90;;;28.50;;
76727;SDS011;65652;53.132;18.026;2023-02-28T00:47:14;83.70;;;26.90;;
76727;SDS011;65652;53.132;18.026;2023-02-28T00:49:40;84.70;;;29.30;;
76727;SDS011;65652;53.132;18.026;2023-02-28T00:52:09;77.10;;;26.90;;
76727;SDS011;65652;53.132;18.026;2023-02-28T00:54:35;86.70;;;27.30;;
76727;SDS011;65652;53.132;18.026;2023-02-28T00:57:02;76.80;;;27.00;;
76727;SDS011;65652;53.132;18.026;2023-02-28T00:59:28;76.70;;;26.20;;
76727;SDS011;65652;53.132;18.026;2023-02-28T01:01:54;70.60;;;23.60;;
76727;SDS011;65652;53.132;18.026;2023-02-28T01:04:21;69.60;;;24.60;;
76727;SDS011;65652;53.132;18.026;2023-02-28T01:06:47;80.20;;;25.90;;
76727;SDS011;65652;53.132;18.026;2023-02-28T01:09:14;77.30;;;25.30;;
76727;SDS011;65652;53.132;18.026;2023-02-28T01:11:41;82.70;;;26.80;;
76727;SDS011;65652;53.132;18.026;2023-02-28T01:14:13;70.10;;;25.20;;
76727;SDS011;65652;53.132;18.026;2023-02-28T01:16:40;64.10;;;24.70;;
76727;SDS011;65652;53.132;18.026;2023-02-28T01:19:07;61.80;;;21.90;;
76727;SDS011;65652;53.132;18.026;2023-02-28T01:21:33;69.30;;;22.30;;
76727;SDS011;65652;53.132;18.026;2023-02-28T01:24:01;61.20;;;21.70;;
76727;SDS011;65652;53.132;18.026;2023-02-28T01:26:28;66.50;;;22.50;;
76727;SDS011;65652;53.132;18.026;2023-02-28T01:28:55;64.50;;;23.10;;
76727;SDS011;65652;53.132;18.026;2023-02-28T01:31:21;60.00;;;22.60;;
76727;SDS011;65652;53.132;18.026;2023-02-28T01:33:48;60.70;;;21.00;;
76727;SDS011;65652;53.132;18.026;2023-02-28T01:36:16;59.30;;;21.30;;
76727;SDS011;65652;53.132;18.026;2023-02-28T01:38:44;56.70;;;19.60;;
76727;SDS011;65652;53.132;18.026;2023-02-28T01:41:16;57.60;;;20.20;;
76727;SDS011;65652;53.132;18.026;2023-02-28T01:46:09;58.00;;;20.90;;
76727;SDS011;65652;53.132;18.026;2023-02-28T01:48:44;66.00;;;22.20;;
76727;SDS011;65652;53.132;18.026;2023-02-28T01:51:24;58.60;;;21.80;;
76727;SDS011;65652;53.132;18.026;2023-02-28T01:54:00;57.70;;;21.60;;
76727;SDS011;65652;53.132;18.026;2023-02-28T01:56:30;54.40;;;21.00;;
76727;SDS011;65652;53.132;18.026;2023-02-28T01:59:02;59.20;;;22.50;;
76727;SDS011;65652;53.132;18.026;2023-02-28T02:01:29;58.10;;;22.80;;
76727;SDS011;65652;53.132;18.026;2023-02-28T02:03:57;56.50;;;19.90;;
76727;SDS011;65652;53.132;18.026;2023-02-28T02:06:30;53.40;;;20.40;;
76727;SDS011;65652;53.132;18.026;2023-02-28T02:09:00;50.00;;;19.00;;
76727;SDS011;65652;53.132;18.026;2023-02-28T02:11:27;52.70;;;19.60;;
76727;SDS011;65652;53.132;18.026;2023-02-28T02:19:51;61.60;;;22.50;;
76727;SDS011;65652;53.132;18.026;2023-02-28T02:22:22;58.20;;;21.10;;
76727;SDS011;65652;53.132;18.026;2023-02-28T02:36:27;54.10;;;20.20;;
76727;SDS011;65652;53.132;18.026;2023-02-28T02:39:19;52.90;;;21.70;;
76727;SDS011;65652;53.132;18.026;2023-02-28T02:41:57;57.80;;;19.70;;
76727;SDS011;65652;53.132;18.026;2023-02-28T02:44:39;57.30;;;21.50;;
76727;SDS011;65652;53.132;18.026;2023-02-28T02:47:12;51.50;;;21.60;;
76727;SDS011;65652;53.132;18.026;2023-02-28T02:49:42;52.70;;;20.40;;
76727;SDS011;65652;53.132;18.026;2023-02-28T02:52:14;50.40;;;20.60;;
76727;SDS011;65652;53.132;18.026;2023-02-28T02:54:45;54.30;;;20.90;;
76727;SDS011;65652;53.132;18.026;2023-02-28T02:57:35;51.80;;;19.80;;
76727;SDS011;65652;53.132;18.026;2023-02-28T03:00:06;45.40;;;18.60;;
76727;SDS011;65652;53.132;18.026;2023-02-28T03:02:35;50.80;;;19.40;;
76727;SDS011;65652;53.132;18.026;2023-02-28T03:05:23;52.30;;;20.00;;
76727;SDS011;65652;53.132;18.026;2023-02-28T03:07:54;52.80;;;20.40;;
76727;SDS011;65652;53.132;18.026;2023-02-28T03:13:00;54.70;;;19.90;;
76727;SDS011;65652;53.132;18.026;2023-02-28T03:18:30;49.30;;;18.10;;
76727;SDS011;65652;53.132;18.026;2023-02-28T03:21:10;48.00;;;18.80;;
76727;SDS011;65652;53.132;18.026;2023-02-28T03:26:12;52.00;;;19.90;;
76727;SDS011;65652;53.132;18.026;2023-02-28T03:28:49;52.80;;;19.80;;
76727;SDS011;65652;53.132;18.026;2023-02-28T03:34:10;52.70;;;19.40;;
76727;SDS011;65652;53.132;18.026;2023-02-28T03:36:47;48.90;;;18.90;;
76727;SDS011;65652;53.132;18.026;2023-02-28T03:39:28;53.80;;;18.50;;
76727;SDS011;65652;53.132;18.026;2023-02-28T03:42:02;49.90;;;18.30;;
76727;SDS011;65652;53.132;18.026;2023-02-28T03:44:49;50.60;;;18.10;;
76727;SDS011;65652;53.132;18.026;2023-02-28T03:47:21;41.40;;;16.60;;
76727;SDS011;65652;53.132;18.026;2023-02-28T03:50:04;52.40;;;18.60;;
76727;SDS011;65652;53.132;18.026;2023-02-28T03:52:38;75.10;;;25.50;;
76727;SDS011;65652;53.132;18.026;2023-02-28T03:55:12;77.90;;;25.90;;
76727;SDS011;65652;53.132;18.026;2023-02-28T03:57:47;79.70;;;27.80;;
76727;SDS011;65652;53.132;18.026;2023-02-28T04:00:31;78.40;;;27.90;;
76727;SDS011;65652;53.132;18.026;2023-02-28T04:03:03;73.80;;;25.60;;
76727;SDS011;65652;53.132;18.026;2023-02-28T04:05:30;70.60;;;25.60;;
76727;SDS011;65652;53.132;18.026;2023-02-28T04:08:04;72.30;;;25.20;;
76727;SDS011;65652;53.132;18.026;2023-02-28T04:10:31;77.10;;;25.50;;
76727;SDS011;65652;53.132;18.026;2023-02-28T04:12:57;86.10;;;28.50;;
76727;SDS011;65652;53.132;18.026;2023-02-28T04:15:23;79.10;;;27.20;;
76727;SDS011;65652;53.132;18.026;2023-02-28T04:17:50;88.10;;;28.30;;
76727;SDS011;65652;53.132;18.026;2023-02-28T04:20:16;84.70;;;28.30;;
76727;SDS011;65652;53.132;18.026;2023-02-28T04:22:43;77.10;;;26.40;;
76727;SDS011;65652;53.132;18.026;2023-02-28T04:25:09;74.60;;;25.80;;
76727;SDS011;65652;53.132;18.026;2023-02-28T04:27:35;77.80;;;25.00;;
76727;SDS011;65652;53.132;18.026;2023-02-28T04:30:01;78.60;;;25.50;;
76727;SDS011;65652;53.132;18.026;2023-02-28T04:32:28;75.00;;;23.50;;
76727;SDS011;65652;53.132;18.026;2023-02-28T04:34:54;74.20;;;24.40;;
76727;SDS011;65652;53.132;18.026;2023-02-28T04:37:20;66.80;;;23.20;;
76727;SDS011;65652;53.132;18.026;2023-02-28T04:39:47;62.60;;;19.80;;
76727;SDS011;65652;53.132;18.026;2023-02-28T04:42:13;56.00;;;19.10;;
76727;SDS011;65652;53.132;18.026;2023-02-28T04:44:39;51.80;;;19.40;;
76727;SDS011;65652;53.132;18.026;2023-02-28T04:47:05;59.90;;;19.50;;
76727;SDS011;65652;53.132;18.026;2023-02-28T04:49:32;69.80;;;22.10;;
76727;SDS011;65652;53.132;18.026;2023-02-28T04:51:58;63.20;;;21.70;;
76727;SDS011;65652;53.132;18.026;2023-02-28T04:54:24;61.10;;;22.60;;
76727;SDS011;65652;53.132;18.026;2023-02-28T04:56:51;75.00;;;24.80;;
76727;SDS011;65652;53.132;18.026;2023-02-28T04:59:17;75.10;;;23.20;;
76727;SDS011;65652;53.132;18.026;2023-02-28T05:01:45;80.10;;;26.40;;
76727;SDS011;65652;53.132;18.026;2023-02-28T05:04:13;77.70;;;28.00;;
76727;SDS011;65652;53.132;18.026;2023-02-28T05:06:40;79.40;;;27.30;;
76727;SDS011;65652;53.132;18.026;2023-02-28T05:09:06;79.60;;;26.70;;
76727;SDS011;65652;53.132;18.026;2023-02-28T05:11:33;80.00;;;25.60;;
76727;SDS011;65652;53.132;18.026;2023-02-28T05:14:01;75.10;;;25.60;;
76727;SDS011;65652;53.132;18.026;2023-02-28T05:16:29;92.80;;;33.40;;
76727;SDS011;65652;53.132;18.026;2023-02-28T05:18:55;109.10;;;42.30;;
76727;SDS011;65652;53.132;18.026;2023-02-28T05:23:53;84.40;;;35.30;;
76727;SDS011;65652;53.132;18.026;2023-02-28T05:26:20;75.70;;;27.60;;
76727;SDS011;65652;53.132;18.026;2023-02-28T05:28:47;72.60;;;27.70;;
76727;SDS011;65652;53.132;18.026;2023-02-28T05:31:13;73.10;;;27.40;;
76727;SDS011;65652;53.132;18.026;2023-02-28T05:33:39;65.90;;;24.70;;
76727;SDS011;65652;53.132;18.026;2023-02-28T05:36:06;65.80;;;25.90;;
76727;SDS011;65652;53.132;18.026;2023-02-28T05:38:32;68.50;;;26.20;;
76727;SDS011;65652;53.132;18.026;2023-02-28T05:40:59;71.50;;;28.80;;
76727;SDS011;65652;53.132;18.026;2023-02-28T05:43:25;86.30;;;31.20;;
76727;SDS011;65652;53.132;18.026;2023-02-28T05:45:51;71.90;;;29.00;;
76727;SDS011;65652;53.132;18.026;2023-02-28T05:48:17;62.80;;;24.20;;
76727;SDS011;65652;53.132;18.026;2023-02-28T05:50:44;56.50;;;21.20;;
76727;SDS011;65652;53.132;18.026;2023-02-28T05:53:11;56.00;;;21.90;;
76727;SDS011;65652;53.132;18.026;2023-02-28T05:55:38;59.50;;;24.00;;
76727;SDS011;65652;53.132;18.026;2023-02-28T05:58:04;56.10;;;24.30;;
76727;SDS011;65652;53.132;18.026;2023-02-28T06:00:30;61.00;;;22.80;;
76727;SDS011;65652;53.132;18.026;2023-02-28T06:02:56;53.40;;;21.90;;
76727;SDS011;65652;53.132;18.026;2023-02-28T06:05:25;45.30;;;19.00;;
76727;SDS011;65652;53.132;18.026;2023-02-28T06:07:52;44.40;;;17.90;;
76727;SDS011;65652;53.132;18.026;2023-02-28T06:10:18;48.80;;;19.00;;
76727;SDS011;65652;53.132;18.026;2023-02-28T06:12:45;49.20;;;18.30;;
76727;SDS011;65652;53.132;18.026;2023-02-28T06:15:12;51.60;;;18.40;;
76727;SDS011;65652;53.132;18.026;2023-02-28T06:17:40;48.40;;;18.20;;
76727;SDS011;65652;53.132;18.026;2023-02-28T06:20:07;47.40;;;19.20;;
76727;SDS011;65652;53.132;18.026;2023-02-28T06:22:35;45.50;;;18.10;;
76727;SDS011;65652;53.132;18.026;2023-02-28T06:25:03;49.60;;;18.90;;
76727;SDS011;65652;53.132;18.026;2023-02-28T06:27:30;48.40;;;18.30;;
76727;SDS011;65652;53.132;18.026;2023-02-28T06:29:56;51.90;;;20.00;;
76727;SDS011;65652;53.132;18.026;2023-02-28T06:32:23;51.10;;;20.70;;
76727;SDS011;65652;53.132;18.026;2023-02-28T06:34:49;51.50;;;21.00;;
76727;SDS011;65652;53.132;18.026;2023-02-28T06:37:16;49.30;;;21.30;;
76727;SDS011;65652;53.132;18.026;2023-02-28T06:39:43;51.00;;;20.50;;
76727;SDS011;65652;53.132;18.026;2023-02-28T06:42:10;62.10;;;25.00;;
76727;SDS011;65652;53.132;18.026;2023-02-28T06:44:36;70.60;;;28.20;;
76727;SDS011;65652;53.132;18.026;2023-02-28T06:47:04;77.80;;;30.90;;
76727;SDS011;65652;53.132;18.026;2023-02-28T06:49:32;73.80;;;31.50;;
76727;SDS011;65652;53.132;18.026;2023-02-28T06:52:00;78.70;;;30.20;;
76727;SDS011;65652;53.132;18.026;2023-02-28T06:54:26;76.10;;;29.00;;
76727;SDS011;65652;53.132;18.026;2023-02-28T06:56:53;78.00;;;32.30;;
76727;SDS011;65652;53.132;18.026;2023-02-28T06:59:20;86.60;;;34.20;;
76727;SDS011;65652;53.132;18.026;2023-02-28T07:01:46;85.80;;;33.40;;
76727;SDS011;65652;53.132;18.026;2023-02-28T07:04:12;85.40;;;33.70;;
76727;SDS011;65652;53.132;18.026;2023-02-28T07:06:39;85.00;;;34.80;;
76727;SDS011;65652;53.132;18.026;2023-02-28T07:09:05;83.60;;;33.20;;
76727;SDS011;65652;53.132;18.026;2023-02-28T07:11:32;81.10;;;31.30;;
76727;SDS011;65652;53.132;18.026;2023-02-28T07:13:58;71.50;;;29.40;;
76727;SDS011;65652;53.132;18.026;2023-02-28T07:16:24;97.00;;;33.50;;
76727;SDS011;65652;53.132;18.026;2023-02-28T07:18:52;93.50;;;33.10;;
76727;SDS011;65652;53.132;18.026;2023-02-28T07:21:19;60.80;;;22.20;;
76727;SDS011;65652;53.132;18.026;2023-02-28T07:23:46;48.30;;;19.80;;
76727;SDS011;65652;53.132;18.026;2023-02-28T07:26:13;49.10;;;19.30;;
76727;SDS011;65652;53.132;18.026;2023-02-28T07:28:41;43.30;;;18.60;;
76727;SDS011;65652;53.132;18.026;2023-02-28T07:31:09;39.40;;;16.40;;
76727;SDS011;65652;53.132;18.026;2023-02-28T07:33:35;38.80;;;17.50;;
76727;SDS011;65652;53.132;18.026;2023-02-28T07:38:28;55.40;;;22.10;;
76727;SDS011;65652;53.132;18.026;2023-02-28T07:40:54;41.10;;;15.90;;
76727;SDS011;65652;53.132;18.026;2023-02-28T07:43:21;40.60;;;17.90;;
76727;SDS011;65652;53.132;18.026;2023-02-28T07:45:47;37.90;;;16.50;;
76727;SDS011;65652;53.132;18.026;2023-02-28T07:48:13;32.90;;;13.60;;
76727;SDS011;65652;53.132;18.026;2023-02-28T07:50:39;49.10;;;21.00;;
76727;SDS011;65652;53.132;18.026;2023-02-28T07:53:06;47.60;;;20.60;;
76727;SDS011;65652;53.132;18.026;2023-02-28T07:55:32;45.20;;;19.70;;
76727;SDS011;65652;53.132;18.026;2023-02-28T07:57:58;39.10;;;17.40;;
76727;SDS011;65652;53.132;18.026;2023-02-28T08:00:24;46.80;;;20.60;;
76727;SDS011;65652;53.132;18.026;2023-02-28T08:02:51;40.00;;;17.50;;
76727;SDS011;65652;53.132;18.026;2023-02-28T08:05:17;30.40;;;12.80;;
76727;SDS011;65652;53.132;18.026;2023-02-28T08:07:43;31.90;;;13.20;;
76727;SDS011;65652;53.132;18.026;2023-02-28T08:10:09;27.10;;;11.30;;
76727;SDS011;65652;53.132;18.026;2023-02-28T08:12:36;29.40;;;12.80;;
76727;SDS011;65652;53.132;18.026;2023-02-28T08:15:02;23.60;;;9.90;;
76727;SDS011;65652;53.132;18.026;2023-02-28T08:17:29;24.10;;;10.50;;
76727;SDS011;65652;53.132;18.026;2023-02-28T08:19:55;22.60;;;9.50;;
76727;SDS011;65652;53.132;18.026;2023-02-28T08:22:21;18.30;;;7.60;;
76727;SDS011;65652;53.132;18.026;2023-02-28T08:24:47;19.80;;;8.60;;
76727;SDS011;65652;53.132;18.026;2023-02-28T08:27:14;17.60;;;7.40;;
76727;SDS011;65652;53.132;18.026;2023-02-28T08:29:41;19.90;;;8.30;;
76727;SDS011;65652;53.132;18.026;2023-02-28T08:32:07;24.10;;;9.70;;
76727;SDS011;65652;53.132;18.026;2023-02-28T08:34:33;19.90;;;9.40;;
76727;SDS011;65652;53.132;18.026;2023-02-28T08:36:59;18.90;;;8.70;;
76727;SDS011;65652;53.132;18.026;2023-02-28T08:39:26;21.60;;;9.60;;
76727;SDS011;65652;53.132;18.026;2023-02-28T08:41:52;22.60;;;10.30;;
76727;SDS011;65652;53.132;18.026;2023-02-28T08:44:18;20.00;;;9.90;;
76727;SDS011;65652;53.132;18.026;2023-02-28T08:46:44;23.40;;;10.90;;
76727;SDS011;65652;53.132;18.026;2023-02-28T08:49:11;21.60;;;8.80;;
76727;SDS011;65652;53.132;18.026;2023-02-28T08:51:38;19.20;;;9.00;;
76727;SDS011;65652;53.132;18.026;2023-02-28T08:54:04;17.80;;;7.70;;
76727;SDS011;65652;53.132;18.026;2023-02-28T08:56:31;22.90;;;11.00;;
76727;SDS011;65652;53.132;18.026;2023-02-28T08:58:57;20.90;;;10.30;;
76727;SDS011;65652;53.132;18.026;2023-02-28T09:01:24;18.40;;;8.90;;
76727;SDS011;65652;53.132;18.026;2023-02-28T09:03:55;18.30;;;8.30;;
76727;SDS011;65652;53.132;18.026;2023-02-28T09:06:23;14.10;;;7.50;;
76727;SDS011;65652;53.132;18.026;2023-02-28T09:08:51;18.80;;;8.80;;
76727;SDS011;65652;53.132;18.026;2023-02-28T09:11:18;16.40;;;8.30;;
76727;SDS011;65652;53.132;18.026;2023-02-28T09:13:45;19.70;;;8.90;;
76727;SDS011;65652;53.132;18.026;2023-02-28T09:16:12;17.70;;;7.90;;
76727;SDS011;65652;53.132;18.026;2023-02-28T09:18:40;16.60;;;7.40;;
76727;SDS011;65652;53.132;18.026;2023-02-28T09:21:09;16.80;;;8.50;;
76727;SDS011;65652;53.132;18.026;2023-02-28T09:23:43;18.30;;;7.70;;
76727;SDS011;65652;53.132;18.026;2023-02-28T09:26:15;10.30;;;4.80;;
76727;SDS011;65652;53.132;18.026;2023-02-28T09:28:43;12.90;;;5.40;;
76727;SDS011;65652;53.132;18.026;2023-02-28T09:31:16;11.10;;;4.90;;
76727;SDS011;65652;53.132;18.026;2023-02-28T09:33:51;9.50;;;4.00;;
76727;SDS011;65652;53.132;18.026;2023-02-28T09:36:20;9.80;;;4.20;;
76727;SDS011;65652;53.132;18.026;2023-02-28T09:38:48;10.20;;;4.10;;
76727;SDS011;65652;53.132;18.026;2023-02-28T09:41:16;13.00;;;6.60;;
76727;SDS011;65652;53.132;18.026;2023-02-28T09:49:05;9.60;;;4.30;;
76727;SDS011;65652;53.132;18.026;2023-02-28T09:51:49;10.40;;;4.60;;
76727;SDS011;65652;53.132;18.026;2023-02-28T09:54:18;10.20;;;4.30;;
76727;SDS011;65652;53.132;18.026;2023-02-28T09:56:52;10.50;;;4.70;;
76727;SDS011;65652;53.132;18.026;2023-02-28T10:05:20;10.50;;;5.30;;
76727;SDS011;65652;53.132;18.026;2023-02-28T10:10:44;9.30;;;4.40;;
76727;SDS011;65652;53.132;18.026;2023-02-28T10:13:14;13.20;;;5.40;;
76727;SDS011;65652;53.132;18.026;2023-02-28T10:15:47;12.30;;;5.20;;
76727;SDS011;65652;53.132;18.026;2023-02-28T10:18:21;11.10;;;5.00;;
76727;SDS011;65652;53.132;18.026;2023-02-28T10:20:53;9.90;;;4.40;;
76727;SDS011;65652;53.132;18.026;2023-02-28T10:23:24;11.80;;;5.00;;
76727;SDS011;65652;53.132;18.026;2023-02-28T10:25:55;10.50;;;4.80;;
76727;SDS011;65652;53.132;18.026;2023-02-28T10:28:25;9.20;;;3.60;;
76727;SDS011;65652;53.132;18.026;2023-02-28T10:30:58;10.60;;;3.50;;
76727;SDS011;65652;53.132;18.026;2023-02-28T10:33:29;12.10;;;4.50;;
76727;SDS011;65652;53.132;18.026;2023-02-28T10:35:57;9.10;;;4.10;;
76727;SDS011;65652;53.132;18.026;2023-02-28T10:38:25;10.10;;;4.20;;
76727;SDS011;65652;53.132;18.026;2023-02-28T10:41:02;11.80;;;4.80;;
76727;SDS011;65652;53.132;18.026;2023-02-28T10:43:37;10.50;;;4.50;;
76727;SDS011;65652;53.132;18.026;2023-02-28T10:48:38;11.60;;;4.70;;
76727;SDS011;65652;53.132;18.026;2023-02-28T10:51:09;12.50;;;4.10;;
76727;SDS011;65652;53.132;18.026;2023-02-28T10:53:45;11.00;;;4.80;;
76727;SDS011;65652;53.132;18.026;2023-02-28T10:56:18;8.70;;;3.70;;
76727;SDS011;65652;53.132;18.026;2023-02-28T11:01:17;10.20;;;4.00;;
76727;SDS011;65652;53.132;18.026;2023-02-28T11:03:48;9.10;;;4.00;;
76727;SDS011;65652;53.132;18.026;2023-02-28T11:06:17;7.20;;;3.40;;
76727;SDS011;65652;53.132;18.026;2023-02-28T11:08:48;8.30;;;3.60;;
76727;SDS011;65652;53.132;18.026;2023-02-28T11:11:17;8.50;;;3.50;;
76727;SDS011;65652;53.132;18.026;2023-02-28T11:13:45;11.10;;;3.60;;
76727;SDS011;65652;53.132;18.026;2023-02-28T11:16:13;7.80;;;3.70;;
76727;SDS011;65652;53.132;18.026;2023-02-28T11:18:42;12.20;;;3.70;;
76727;SDS011;65652;53.132;18.026;2023-02-28T11:21:09;8.80;;;4.10;;
76727;SDS011;65652;53.132;18.026;2023-02-28T11:23:44;8.90;;;4.10;;
76727;SDS011;65652;53.132;18.026;2023-02-28T11:26:11;7.80;;;2.90;;
76727;SDS011;65652;53.132;18.026;2023-02-28T11:28:41;8.20;;;3.80;;
76727;SDS011;65652;53.132;18.026;2023-02-28T11:33:47;8.50;;;3.00;;
76727;SDS011;65652;53.132;18.026;2023-02-28T11:36:23;6.80;;;2.90;;
76727;SDS011;65652;53.132;18.026;2023-02-28T11:38:51;6.70;;;3.10;;
76727;SDS011;65652;53.132;18.026;2023-02-28T11:44:17;8.30;;;2.80;;
76727;SDS011;65652;53.132;18.026;2023-02-28T11:47:17;6.60;;;2.40;;
76727;SDS011;65652;53.132;18.026;2023-02-28T11:52:48;8.40;;;3.60;;
76727;SDS011;65652;53.132;18.026;2023-02-28T12:08:51;9.80;;;4.50;;
76727;SDS011;65652;53.132;18.026;2023-02-28T12:19:42;6.40;;;2.80;;
76727;SDS011;65652;53.132;18.026;2023-02-28T12:28:08;8.80;;;3.80;;
76727;SDS011;65652;53.132;18.026;2023-02-28T12:30:38;6.80;;;2.90;;
76727;SDS011;65652;53.132;18.026;2023-02-28T12:33:13;10.80;;;3.30;;
76727;SDS011;65652;53.132;18.026;2023-02-28T12:40:56;9.10;;;3.20;;
76727;SDS011;65652;53.132;18.026;2023-02-28T12:43:38;9.80;;;3.80;;
76727;SDS011;65652;53.132;18.026;2023-02-28T12:46:12;8.90;;;3.20;;
76727;SDS011;65652;53.132;18.026;2023-02-28T12:48:46;7.00;;;3.20;;
76727;SDS011;65652;53.132;18.026;2023-02-28T12:51:16;8.90;;;3.20;;
76727;SDS011;65652;53.132;18.026;2023-02-28T12:53:55;8.30;;;3.20;;
76727;SDS011;65652;53.132;18.026;2023-02-28T12:59:53;6.20;;;2.60;;
76727;SDS011;65652;53.132;18.026;2023-02-28T13:08:34;7.70;;;2.60;;
76727;SDS011;65652;53.132;18.026;2023-02-28T13:11:04;8.20;;;3.30;;
76727;SDS011;65652;53.132;18.026;2023-02-28T13:13:30;7.40;;;2.60;;
76727;SDS011;65652;53.132;18.026;2023-02-28T13:18:47;8.60;;;3.30;;
76727;SDS011;65652;53.132;18.026;2023-02-28T13:21:23;9.30;;;3.50;;
76727;SDS011;65652;53.132;18.026;2023-02-28T13:26:22;9.60;;;3.60;;
76727;SDS011;65652;53.132;18.026;2023-02-28T13:34:35;6.80;;;2.90;;
76727;SDS011;65652;53.132;18.026;2023-02-28T13:39:48;11.00;;;3.50;;
76727;SDS011;65652;53.132;18.026;2023-02-28T13:48:14;8.60;;;3.50;;
76727;SDS011;65652;53.132;18.026;2023-02-28T13:55:38;10.00;;;4.40;;
76727;SDS011;65652;53.132;18.026;2023-02-28T13:58:20;7.80;;;3.20;;
76727;SDS011;65652;53.132;18.026;2023-02-28T14:06:37;10.80;;;4.20;;
76727;SDS011;65652;53.132;18.026;2023-02-28T14:11:43;8.40;;;3.10;;
76727;SDS011;65652;53.132;18.026;2023-02-28T14:14:53;8.50;;;3.50;;
76727;SDS011;65652;53.132;18.026;2023-02-28T14:17:03;10.70;;;3.50;;
76727;SDS011;65652;53.132;18.026;2023-02-28T14:19:31;7.70;;;3.10;;
76727;SDS011;65652;53.132;18.026;2023-02-28T14:30:15;8.60;;;3.30;;
76727;SDS011;65652;53.132;18.026;2023-02-28T14:33:09;8.50;;;3.60;;
76727;SDS011;65652;53.132;18.026;2023-02-28T14:35:51;9.60;;;4.00;;
76727;SDS011;65652;53.132;18.026;2023-02-28T14:38:29;11.20;;;5.10;;
76727;SDS011;65652;53.132;18.026;2023-02-28T14:41:00;11.70;;;4.30;;
76727;SDS011;65652;53.132;18.026;2023-02-28T14:43:31;10.40;;;4.50;;
76727;SDS011;65652;53.132;18.026;2023-02-28T14:45:58;10.20;;;4.30;;
76727;SDS011;65652;53.132;18.026;2023-02-28T14:48:27;9.20;;;4.70;;
76727;SDS011;65652;53.132;18.026;2023-02-28T14:50:55;10.50;;;3.90;;
76727;SDS011;65652;53.132;18.026;2023-02-28T14:53:25;9.50;;;4.00;;
76727;SDS011;65652;53.132;18.026;2023-02-28T14:55:54;9.30;;;3.60;;
76727;SDS011;65652;53.132;18.026;2023-02-28T14:58:30;9.00;;;3.00;;
76727;SDS011;65652;53.132;18.026;2023-02-28T15:01:00;10.30;;;4.00;;
76727;SDS011;65652;53.132;18.026;2023-02-28T15:03:38;11.00;;;4.10;;
76727;SDS011;65652;53.132;18.026;2023-02-28T15:06:11;12.50;;;5.20;;
76727;SDS011;65652;53.132;18.026;2023-02-28T15:08:40;9.90;;;4.20;;
76727;SDS011;65652;53.132;18.026;2023-02-28T15:13:36;8.70;;;3.50;;
76727;SDS011;65652;53.132;18.026;2023-02-28T15:16:13;9.20;;;2.90;;
76727;SDS011;65652;53.132;18.026;2023-02-28T15:21:20;10.10;;;3.70;;
76727;SDS011;65652;53.132;18.026;2023-02-28T15:23:53;11.40;;;3.60;;
76727;SDS011;65652;53.132;18.026;2023-02-28T15:26:23;13.60;;;3.90;;
76727;SDS011;65652;53.132;18.026;2023-02-28T15:28:56;17.60;;;7.50;;
76727;SDS011;65652;53.132;18.026;2023-02-28T15:31:26;12.80;;;5.60;;
76727;SDS011;65652;53.132;18.026;2023-02-28T15:33:56;7.60;;;3.60;;
76727;SDS011;65652;53.132;18.026;2023-02-28T15:36:29;8.40;;;4.20;;
76727;SDS011;65652;53.132;18.026;2023-02-28T15:38:57;14.30;;;5.30;;
76727;SDS011;65652;53.132;18.026;2023-02-28T15:41:28;12.80;;;4.60;;
76727;SDS011;65652;53.132;18.026;2023-02-28T15:47:04;12.70;;;5.50;;
76727;SDS011;65652;53.132;18.026;2023-02-28T15:49:51;11.60;;;4.20;;
76727;SDS011;65652;53.132;18.026;2023-02-28T15:52:21;13.50;;;5.10;;
76727;SDS011;65652;53.132;18.026;2023-02-28T15:54:52;11.70;;;5.90;;
76727;SDS011;65652;53.132;18.026;2023-02-28T15:57:25;11.60;;;5.20;;
76727;SDS011;65652;53.132;18.026;2023-02-28T15:59:55;15.40;;;6.10;;
76727;SDS011;65652;53.132;18.026;2023-02-28T16:02:31;24.00;;;8.50;;
76727;SDS011;65652;53.132;18.026;2023-02-28T16:07:28;15.80;;;5.30;;
76727;SDS011;65652;53.132;18.026;2023-02-28T16:09:55;18.80;;;5.80;;
76727;SDS011;65652;53.132;18.026;2023-02-28T16:12:24;18.10;;;7.80;;
76727;SDS011;65652;53.132;18.026;2023-02-28T16:14:53;28.80;;;11.50;;
76727;SDS011;65652;53.132;18.026;2023-02-28T16:17:23;23.60;;;9.30;;
76727;SDS011;65652;53.132;18.026;2023-02-28T16:19:51;38.60;;;15.40;;
76727;SDS011;65652;53.132;18.026;2023-02-28T16:22:18;23.70;;;7.80;;
76727;SDS011;65652;53.132;18.026;2023-02-28T16:24:44;18.40;;;6.80;;
76727;SDS011;65652;53.132;18.026;2023-02-28T16:27:30;24.40;;;9.70;;
76727;SDS011;65652;53.132;18.026;2023-02-28T16:29:58;22.60;;;9.20;;
76727;SDS011;65652;53.132;18.026;2023-02-28T16:32:26;19.40;;;7.90;;
76727;SDS011;65652;53.132;18.026;2023-02-28T16:34:52;31.20;;;9.90;;
76727;SDS011;65652;53.132;18.026;2023-02-28T16:37:19;27.20;;;9.40;;
76727;SDS011;65652;53.132;18.026;2023-02-28T16:39:45;26.60;;;9.60;;
76727;SDS011;65652;53.132;18.026;2023-02-28T16:42:23;23.70;;;9.60;;
76727;SDS011;65652;53.132;18.026;2023-02-28T16:44:53;25.80;;;10.70;;
76727;SDS011;65652;53.132;18.026;2023-02-28T16:47:20;25.60;;;11.60;;
76727;SDS011;65652;53.132;18.026;2023-02-28T16:49:47;22.30;;;9.50;;
76727;SDS011;65652;53.132;18.026;2023-02-28T16:52:13;27.20;;;10.90;;
76727;SDS011;65652;53.132;18.026;2023-02-28T16:54:40;25.50;;;9.80;;
76727;SDS011;65652;53.132;18.026;2023-02-28T16:57:15;31.60;;;12.00;;
76727;SDS011;65652;53.132;18.026;2023-02-28T16:59:47;32.90;;;11.80;;
76727;SDS011;65652;53.132;18.026;2023-02-28T17:02:14;33.30;;;12.70;;
76727;SDS011;65652;53.132;18.026;2023-02-28T17:04:43;31.90;;;12.10;;
76727;SDS011;65652;53.132;18.026;2023-02-28T17:07:10;35.80;;;14.40;;
76727;SDS011;65652;53.132;18.026;2023-02-28T17:09:39;31.50;;;13.50;;